Buoy 46535

sailwx.info

Track history (hours):
 
Tides and Currents Weather Stations Pressure Air Temp Water Temp Dewpoint Dewpoint Depression Visibility Wind Speed Wind Dir Waves Ship Positions

Drifting buoy 46535

Last reported at 2014-Nov-24 13:50 UTC. Time now 2014-Nov-24 15:19 UTC.
Position N 55°11' W 152°16'.

Barometer 1000.0 mb
Water temperature 8.0 ° C

Date/timePositionNaut miles runAvg speedWind from/ knotsBaromVisibWave heightAir tempDewpointWater temp
2014-Nov-24 13:50N 55°11' W 152°16'1 0.8 1000.0 8.0
2014-Nov-24 13:00N 55°11' W 152°17'1 0.6 999.8 8.0
2014-Nov-24 11:50N 55°11' W 152°16'1 0.8 999.2 8.0
2014-Nov-24 11:00N 55°11' W 152°14'1 0.4 998.9 8.0
2014-Nov-24 08:50N 55°12' W 152°16'0 0.0 998.4 8.0
2014-Nov-24 07:50N 55°12' W 152°16'0 0.4 998.2 8.0
2014-Nov-24 07:00N 55°12' W 152°16'1 0.7 997.9 8.0
2014-Nov-24 06:00N 55°13' W 152°17'0 0.0 997.4 8.1
2014-Nov-24 03:50N 55°13' W 152°17'1 0.7 996.6 8.1
2014-Nov-24 02:50N 55°12' W 152°17'1 0.7 995.8 8.1
2014-Nov-24 01:50N 55°13' W 152°17'0 0.3 995.3 8.1
2014-Nov-24 00:50N 55°13' W 152°16'0 0.0 994.7 8.1
2014-Nov-24 00:00N 55°13' W 152°16'1 0.9 994.3 8.1
2014-Nov-23 23:00N 55°13' W 152°15'1 0.6 994.1 8.1
2014-Nov-23 21:50N 55°14' W 152°14'0 0.0 993.9 8.1
2014-Nov-23 21:00N 55°14' W 152°14'1 0.6 993.7 8.1
2014-Nov-23 19:50N 55°14' W 152°16'0 0.0 993.3 8.1
2014-Nov-23 18:50N 55°14' W 152°16'0 0.3 992.8 8.1
2014-Nov-23 17:50N 55°14' W 152°16'0 0.0 992.4 8.1
2014-Nov-23 17:00N 55°14' W 152°16'1 0.6 991.9 8.1
2014-Nov-23 16:00N 55°14' W 152°16'1 0.7 991.4 8.1
2014-Nov-23 15:00N 55°15' W 152°17'1 0.5 991.1 8.1
2014-Nov-23 13:50N 55°14' W 152°17'1 1.2 990.7 8.1
2014-Nov-23 12:50N 55°15' W 152°19'2 1.8 990.4 8.1
2014-Nov-23 11:50N 55°14' W 152°16'1 1.2 989.9 8.1
2014-Nov-23 10:50N 55°16' W 152°15'1 1.2 989.5 8.1
2014-Nov-23 09:50N 55°14' W 152°16'2 1.0 989.3 8.1
2014-Nov-23 07:50N 55°16' W 152°14'1 0.5 988.3 8.1
2014-Nov-23 05:50N 55°16' W 152°16'1 0.7 987.3 8.1
2014-Nov-23 04:50N 55°17' W 152°16'0 0.3 986.9 8.1
2014-Nov-23 03:50N 55°17' W 152°17'0 0.3 986.6 8.1
2014-Nov-23 02:50N 55°17' W 152°17'0 0.0 986.4 8.1
2014-Nov-23 02:00N 55°17' W 152°17'0 0.0 985.9 8.1
2014-Nov-22 23:50N 55°17' W 152°17'1 0.6 985.3 8.1
2014-Nov-22 22:50N 55°16' W 152°17'1 0.7 985.0 8.1
2014-Nov-22 21:50N 55°16' W 152°17'0 0.0 984.8 8.1
2014-Nov-22 21:00N 55°16' W 152°17'2 2.5 984.6 8.1
2014-Nov-22 20:00N 55°17' W 152°14'0 0.1 984.1 8.1
2014-Nov-22 19:00N 55°17' W 152°14'0 0.1 983.6 8.1
2014-Nov-22 18:00N 55°17' W 152°14'1 1.0 982.8 8.1
2014-Nov-22 16:50N 55°19' W 152°14'1 1.5 982.4 8.1
2014-Nov-22 15:50N 55°19' W 152°16'0 0.3 981.7 8.1
2014-Nov-22 14:50N 55°19' W 152°16'0 0.0 981.2 8.1
2014-Nov-22 13:50N 55°19' W 152°16'1 1.4 980.7 8.1
2014-Nov-22 13:00N 55°19' W 152°17'0 0.0 980.4 8.1
2014-Nov-22 12:00N 55°19' W 152°17'0 0.0 979.8 8.2
2014-Nov-22 10:50N 55°19' W 152°17'0 0.4 979.2 8.2
2014-Nov-22 10:00N 55°19' W 152°18'2 0.8 978.5 8.2
2014-Nov-22 07:50N 55°18' W 152°15'1 0.7 977.1 8.2
2014-Nov-22 07:00N 55°19' W 152°15'1 1.4 976.2 8.2
2014-Nov-22 06:00N 55°20' W 152°14'1 1.1 975.5 8.2
2014-Nov-22 04:50N 55°21' W 152°13'0 0.3 974.7 8.2
2014-Nov-22 03:50N 55°21' W 152°14'1 1.2 974.1 8.2
2014-Nov-22 02:50N 55°22' W 152°16'1 0.9 973.5 8.2
2014-Nov-22 01:50N 55°22' W 152°17'1 0.8 973.1 8.2
2014-Nov-22 00:50N 55°22' W 152°17'1 0.8 972.8 8.2
2014-Nov-22 00:00N 55°22' W 152°18'1 1.4 973.2 8.2
2014-Nov-21 23:00N 55°21' W 152°17'0 0.2 973.5 8.2
2014-Nov-21 20:50N 55°21' W 152°16'1 0.7 974.1 8.2
2014-Nov-21 19:50N 55°22' W 152°16'0 0.0 973.9 8.2
2014-Nov-21 18:50N 55°22' W 152°16'2 1.8 973.6 8.2
2014-Nov-21 18:00N 55°22' W 152°13'0 0.3 973.4 8.2
2014-Nov-21 17:00N 55°22' W 152°13'1 1.0 973.2 8.2
2014-Nov-21 15:50N 55°23' W 152°13'0 0.0 973.0 8.2
2014-Nov-21 15:00N 55°23' W 152°13'1 0.8 972.8 8.2
2014-Nov-21 13:50N 55°24' W 152°14'1 0.7 972.6 8.2
2014-Nov-21 12:50N 55°24' W 152°13'1 1.5 972.3 8.2
2014-Nov-21 11:50N 55°25' W 152°16'0 0.4 971.8 8.2
2014-Nov-21 11:00N 55°25' W 152°15'1 0.3 971.5 8.2
2014-Nov-21 09:00N 55°24' W 152°14'0 0.0 970.4 8.2
2014-Nov-21 07:50N 55°24' W 152°14'1 1.0 969.8 8.2
2014-Nov-21 06:50N 55°24' W 152°16'1 1.0 969.1 8.2
2014-Nov-21 05:50N 55°24' W 152°14'1 0.7 968.8 8.2
2014-Nov-21 04:50N 55°25' W 152°14'0 0.0 968.8 8.2
2014-Nov-21 04:00N 55°25' W 152°14'1 0.6 968.9 8.3
2014-Nov-21 03:00N 55°25' W 152°14'1 0.5 968.9 8.3
2014-Nov-21 01:50N 55°26' W 152°14'1 0.8 968.6 8.3
2014-Nov-21 01:00N 55°25' W 152°14'0 0.0 968.3 8.3
2014-Nov-20 23:50N 55°25' W 152°14'0 0.3 968.1 8.3
2014-Nov-20 22:50N 55°25' W 152°14'0 0.0 968.3 8.3
2014-Nov-20 21:50N 55°25' W 152°14'2 1.8 968.4 8.3
2014-Nov-20 21:00N 55°24' W 152°12'2 1.7 968.5 8.3
2014-Nov-20 20:00N 55°26' W 152°13'1 0.3 968.6 8.3
2014-Nov-20 17:50N 55°26' W 152°13'0 0.4 969.3 8.3
2014-Nov-20 16:50N 55°26' W 152°13'1 0.6 969.9 8.3
2014-Nov-20 15:50N 55°26' W 152°14'1 0.6 970.3 8.3
2014-Nov-20 14:50N 55°25' W 152°14'0 0.0 972.7 8.3
2014-Nov-20 14:00N 55°25' W 152°14'1 0.7 975.4 8.3
2014-Nov-20 13:00N 55°25' W 152°13'0 0.0 978.2 8.3
2014-Nov-20 12:00N 55°25' W 152°13'3 1.3 980.9 8.4
2014-Nov-20 09:50N 55°24' W 152°08'1 0.2 985.9 8.4
2014-Nov-20 07:00N 55°25' W 152°09'1 0.6 991.4 8.4
2014-Nov-20 06:00N 55°25' W 152°09'1 0.6 992.8 8.4
2014-Nov-20 04:50N 55°26' W 152°08'1 0.7 994.4 8.4
2014-Nov-20 03:50N 55°25' W 152°09'1 0.9 995.7 8.4
2014-Nov-20 02:50N 55°26' W 152°10'0 0.1 997.0 8.4
2014-Nov-20 01:50N 55°26' W 152°10'1 0.7 997.8 8.4
2014-Nov-20 01:00N 55°25' W 152°11'0 0.0 998.5 8.4
2014-Nov-20 00:00N 55°25' W 152°11'1 0.6 999.6 8.4
2014-Nov-19 22:50N 55°25' W 152°10'1 1.2 1000.7 8.4
2014-Nov-19 21:50N 55°24' W 152°10'1 0.8 1001.6 8.4
2014-Nov-19 21:00N 55°24' W 152°08'0 0.3 1002.4 8.4
2014-Nov-19 19:50N 55°24' W 152°08'2 1.8 1003.0 8.4
2014-Nov-19 18:50N 55°25' W 152°05'1 1.5 1003.4 8.4
2014-Nov-19 18:00N 55°26' W 152°05'0 0.3 1003.2 8.4
2014-Nov-19 17:00N 55°26' W 152°05'1 0.8 1003.6 8.4
2014-Nov-19 15:50N 55°26' W 152°06'1 0.7 1003.9 8.4
2014-Nov-19 14:50N 55°27' W 152°07'1 0.7 1003.4 8.4
2014-Nov-19 13:50N 55°27' W 152°08'1 0.7 1003.5 8.4
2014-Nov-19 12:50N 55°26' W 152°08'0 0.0 1003.4 8.4
2014-Nov-19 11:50N 55°26' W 152°08'0 0.1 1003.2 8.4
2014-Nov-19 10:50N 55°26' W 152°08'2 0.9 1002.3 8.4
2014-Nov-19 09:00N 55°26' W 152°05'1 1.2 1000.9 8.4
2014-Nov-19 08:00N 55°26' W 152°04'0 0.2 1000.1 8.4
2014-Nov-19 06:50N 55°26' W 152°04'0 0.4 999.3 8.4
2014-Nov-19 05:50N 55°26' W 152°03'1 0.6 998.5 8.4
2014-Nov-19 04:50N 55°27' W 152°03'1 0.7 997.6 8.4
2014-Nov-19 04:00N 55°28' W 152°03'1 1.2 996.7 8.4
2014-Nov-19 03:00N 55°28' W 152°05'0 0.0 996.0 8.4
2014-Nov-19 02:00N 55°28' W 152°05'1 0.8 994.7 8.4
2014-Nov-19 00:50N 55°29' W 152°06'0 0.3 993.6 8.4
2014-Nov-18 23:50N 55°29' W 152°07'1 0.6 992.4 8.4
2014-Nov-18 22:50N 55°28' W 152°07'0 0.0 991.2 8.4
2014-Nov-18 22:00N 55°28' W 152°07'2 1.4 990.4 8.4
2014-Nov-18 20:50N 55°27' W 152°05'1 0.6 989.1 8.5
2014-Nov-18 20:00N 55°27' W 152°05'2 2.4 988.0 8.5
2014-Nov-18 19:00N 55°29' W 152°02'0 0.0 986.7 8.5
2014-Nov-18 18:00N 55°29' W 152°02'1 0.6 985.9 8.5
2014-Nov-18 16:50N 55°29' W 152°02'1 0.7 985.3 8.5
2014-Nov-18 15:50N 55°30' W 152°02'1 1.7 985.2 8.5
2014-Nov-18 15:00N 55°31' W 152°03'1 0.5 985.2 8.5
2014-Nov-18 14:00N 55°32' W 152°02'0 0.4 985.4 8.5
2014-Nov-18 13:00N 55°32' W 152°03'1 0.5 986.5 8.5
2014-Nov-18 11:50N 55°31' W 152°03'0 0.0 988.1 8.5
2014-Nov-18 11:00N 55°31' W 152°03'0 0.1 989.7 8.5
2014-Nov-18 08:00N 55°31' W 152°02'2 1.5 993.5 8.5
2014-Nov-18 06:50N 55°31' W 151°59'1 1.1 994.1 8.5
2014-Nov-18 06:00N 55°31' W 152°01'1 1.4 994.5 8.5
2014-Nov-18 05:00N 55°31' W 151°58'0 0.0 994.9 8.5
2014-Nov-18 03:50N 55°31' W 151°58'0 0.3 996.3 8.5
2014-Nov-18 02:50N 55°31' W 151°58'0 0.4 998.1 8.5
2014-Nov-18 01:50N 55°31' W 151°57'1 1.2 1000.4 8.5
2014-Nov-18 01:00N 55°32' W 151°56'0 0.0 1003.1 8.5
2014-Nov-18 00:00N 55°32' W 151°56'1 0.9 1005.2 8.5
2014-Nov-17 23:00N 55°31' W 151°55'1 0.6 1007.3 8.5
2014-Nov-17 21:50N 55°31' W 151°56'1 1.2 1009.1 8.5
2014-Nov-17 21:00N 55°31' W 151°55'0 0.3 1010.4 8.5
2014-Nov-17 19:50N 55°31' W 151°54'0 0.0 1011.3 8.5
2014-Nov-17 18:50N 55°31' W 151°54'1 0.7 1012.3 8.5
2014-Nov-17 17:50N 55°31' W 151°53'0 0.4 1013.2 8.5
2014-Nov-17 17:00N 55°31' W 151°53'1 1.0 1013.4 8.5
2014-Nov-17 16:00N 55°31' W 151°52'0 0.3 1014.2 8.6
2014-Nov-17 15:00N 55°31' W 151°51'0 0.0 1014.7 8.6
2014-Nov-17 13:50N 55°31' W 151°51'1 0.7 1015.7 8.6
2014-Nov-17 12:50N 55°31' W 151°50'0 0.3 1015.9 8.6
2014-Nov-17 11:50N 55°31' W 151°50'0 0.2 1015.6 8.6
2014-Nov-17 10:00N 55°31' W 151°50'1 0.9 1016.1 8.6
2014-Nov-17 08:50N 55°31' W 151°48'0 0.0 1016.1 8.6
2014-Nov-17 07:50N 55°31' W 151°48'0 0.0 1015.7 8.6
2014-Nov-17 06:50N 55°31' W 151°48'0 0.3 1015.2 8.6
2014-Nov-17 05:50N 55°31' W 151°47'0 0.3 1014.6 8.6
2014-Nov-17 04:50N 55°31' W 151°48'0 0.3 1014.0 8.6
2014-Nov-17 03:50N 55°31' W 151°47'0 0.4 1013.3 8.6
2014-Nov-17 03:00N 55°31' W 151°47'0 0.0 1012.1 8.6
2014-Nov-17 02:00N 55°31' W 151°47'1 0.5 1010.8 8.6
2014-Nov-17 00:50N 55°31' W 151°47'1 0.7 1009.6 8.6
2014-Nov-16 23:50N 55°30' W 151°46'1 0.8 1008.5 8.6
2014-Nov-16 22:50N 55°30' W 151°45'0 0.3 1007.7 8.6
2014-Nov-16 22:00N 55°31' W 151°46'1 0.9 1007.3 8.7
2014-Nov-16 21:00N 55°30' W 151°44'1 0.7 1006.9 8.7
2014-Nov-16 20:00N 55°31' W 151°44'0 0.0 1005.9 8.6
2014-Nov-16 18:50N 55°31' W 151°44'1 1.2 1005.5 8.6
2014-Nov-16 18:00N 55°31' W 151°42'0 0.0 1004.8 8.6
2014-Nov-16 16:50N 55°31' W 151°42'0 0.0 1004.2 8.6
2014-Nov-16 15:50N 55°31' W 151°42'0 0.0 1003.9 8.6
2014-Nov-16 15:00N 55°31' W 151°42'0 0.0 1004.0 8.6
2014-Nov-16 14:00N 55°31' W 151°42'1 0.6 1004.3 8.6
2014-Nov-16 13:00N 55°30' W 151°42'0 0.3 1004.6 8.6
2014-Nov-16 11:50N 55°30' W 151°41'1 1.4 1005.1 8.6
2014-Nov-16 10:50N 55°29' W 151°40'2 1.5 1006.0 8.6
2014-Nov-16 09:50N 55°28' W 151°38'0 0.3 1007.0 8.6
2014-Nov-16 08:50N 55°28' W 151°38'1 0.8 1007.6 8.6
2014-Nov-16 07:00N 55°28' W 151°35'0 0.0 1008.6 8.6
2014-Nov-16 05:50N 55°28' W 151°35'0 0.4 1009.0 8.6
2014-Nov-16 05:00N 55°28' W 151°35'0 0.0 1009.0 8.6
2014-Nov-16 03:50N 55°28' W 151°35'0 0.3 1008.7 8.6
2014-Nov-16 02:50N 55°28' W 151°34'1 0.7 1007.7 8.6
2014-Nov-16 01:50N 55°28' W 151°35'1 0.6 1006.7 8.6
2014-Nov-16 00:50N 55°27' W 151°35'1 1.5 1005.5 8.6
2014-Nov-16 00:00N 55°26' W 151°35'0 0.0 1004.2 8.6
2014-Nov-15 21:50N 55°26' W 151°35'1 0.7 1002.5 8.6
2014-Nov-15 19:50N 55°25' W 151°34'3 2.7 1002.5 8.6
2014-Nov-15 18:50N 55°23' W 151°31'0 0.0 1003.3 8.6
2014-Nov-15 18:00N 55°23' W 151°31'1 1.0 1004.8 8.6
2014-Nov-15 17:00N 55°23' W 151°29'1 0.6 1006.2 8.6
2014-Nov-15 15:50N 55°22' W 151°28'0 0.0 1007.2 8.6
2014-Nov-15 15:00N 55°22' W 151°28'1 0.8 1008.0 8.6
2014-Nov-15 13:50N 55°22' W 151°27'0 0.0 1008.6 8.6
2014-Nov-15 12:50N 55°22' W 151°27'1 0.7 1009.2 8.6
2014-Nov-15 11:50N 55°22' W 151°26'1 0.4 1009.6 8.6
2014-Nov-15 10:00N 55°21' W 151°26'2 1.0 1010.6 8.6
2014-Nov-15 08:00N 55°19' W 151°25'1 0.5 1010.9 8.6
2014-Nov-15 06:50N 55°19' W 151°25'1 0.7 1010.8 8.6
2014-Nov-15 05:50N 55°18' W 151°25'1 0.9 1010.7 8.6
2014-Nov-15 04:50N 55°17' W 151°23'0 0.4 1010.8 8.6
2014-Nov-15 04:00N 55°17' W 151°23'1 0.7 1010.8 8.6
2014-Nov-15 03:00N 55°17' W 151°22'1 1.0 1010.8 8.6
2014-Nov-15 01:50N 55°16' W 151°20'0 0.0 1010.8 8.6
2014-Nov-15 01:00N 55°16' W 151°20'1 0.6 1010.7 8.6
2014-Nov-14 23:50N 55°16' W 151°19'0 0.0 1011.1 8.6
2014-Nov-14 22:50N 55°16' W 151°19'1 1.2 1011.6 8.6
2014-Nov-14 21:50N 55°15' W 151°19'0 0.0 1011.7 8.6
2014-Nov-14 21:00N 55°15' W 151°19'1 0.5 1011.6 8.6
2014-Nov-14 19:50N 55°14' W 151°19'1 0.6 1011.1 8.6
2014-Nov-14 18:50N 55°14' W 151°19'2 2.2 1010.3 8.6
2014-Nov-14 18:00N 55°13' W 151°16'0 0.0 1008.9 8.6
2014-Nov-14 16:50N 55°13' W 151°16'1 1.0 1007.5 8.6
2014-Nov-14 15:50N 55°13' W 151°14'0 0.4 1006.4 8.6
2014-Nov-14 15:00N 55°13' W 151°14'0 0.3 1005.6 8.6
2014-Nov-14 14:00N 55°13' W 151°14'   1005.0 8.6
Track history (hours):
 
Tides and Currents Weather Stations Pressure Air Temp Water Temp Dewpoint Dewpoint Depression Visibility Wind Speed Wind Dir Waves Ship Positions

Drifting buoy 46535

Last reported at 2014-Nov-24 13:50 UTC. Time now 2014-Nov-24 15:19 UTC.
Position N 55°11' W 152°16'.

Barometer 1000.0 mb
Water temperature 8.0 ° C

Date/timePositionNaut miles runAvg speedWind from/ knotsBaromVisibWave heightAir tempDewpointWater temp
2014-Nov-24 13:50N 55°11' W 152°16'1 0.8 1000.0 8.0
2014-Nov-24 13:00N 55°11' W 152°17'1 0.6 999.8 8.0
2014-Nov-24 11:50N 55°11' W 152°16'1 0.8 999.2 8.0
2014-Nov-24 11:00N 55°11' W 152°14'1 0.4 998.9 8.0
2014-Nov-24 08:50N 55°12' W 152°16'0 0.0 998.4 8.0
2014-Nov-24 07:50N 55°12' W 152°16'0 0.4 998.2 8.0
2014-Nov-24 07:00N 55°12' W 152°16'1 0.7 997.9 8.0
2014-Nov-24 06:00N 55°13' W 152°17'0 0.0 997.4 8.1
2014-Nov-24 03:50N 55°13' W 152°17'1 0.7 996.6 8.1
2014-Nov-24 02:50N 55°12' W 152°17'1 0.7 995.8 8.1
2014-Nov-24 01:50N 55°13' W 152°17'0 0.3 995.3 8.1
2014-Nov-24 00:50N 55°13' W 152°16'0 0.0 994.7 8.1
2014-Nov-24 00:00N 55°13' W 152°16'1 0.9 994.3 8.1
2014-Nov-23 23:00N 55°13' W 152°15'1 0.6 994.1 8.1
2014-Nov-23 21:50N 55°14' W 152°14'0 0.0 993.9 8.1
2014-Nov-23 21:00N 55°14' W 152°14'1 0.6 993.7 8.1
2014-Nov-23 19:50N 55°14' W 152°16'0 0.0 993.3 8.1
2014-Nov-23 18:50N 55°14' W 152°16'0 0.3 992.8 8.1
2014-Nov-23 17:50N 55°14' W 152°16'0 0.0 992.4 8.1
2014-Nov-23 17:00N 55°14' W 152°16'1 0.6 991.9 8.1
2014-Nov-23 16:00N 55°14' W 152°16'1 0.7 991.4 8.1
2014-Nov-23 15:00N 55°15' W 152°17'1 0.5 991.1 8.1
2014-Nov-23 13:50N 55°14' W 152°17'1 1.2 990.7 8.1
2014-Nov-23 12:50N 55°15' W 152°19'2 1.8 990.4 8.1
2014-Nov-23 11:50N 55°14' W 152°16'1 1.2 989.9 8.1
2014-Nov-23 10:50N 55°16' W 152°15'1 1.2 989.5 8.1
2014-Nov-23 09:50N 55°14' W 152°16'2 1.0 989.3 8.1
2014-Nov-23 07:50N 55°16' W 152°14'1 0.5 988.3 8.1
2014-Nov-23 05:50N 55°16' W 152°16'1 0.7 987.3 8.1
2014-Nov-23 04:50N 55°17' W 152°16'0 0.3 986.9 8.1
2014-Nov-23 03:50N 55°17' W 152°17'0 0.3 986.6 8.1
2014-Nov-23 02:50N 55°17' W 152°17'0 0.0 986.4 8.1
2014-Nov-23 02:00N 55°17' W 152°17'0 0.0 985.9 8.1
2014-Nov-22 23:50N 55°17' W 152°17'1 0.6 985.3 8.1
2014-Nov-22 22:50N 55°16' W 152°17'1 0.7 985.0 8.1
2014-Nov-22 21:50N 55°16' W 152°17'0 0.0 984.8 8.1
2014-Nov-22 21:00N 55°16' W 152°17'2 2.5 984.6 8.1
2014-Nov-22 20:00N 55°17' W 152°14'0 0.1 984.1 8.1
2014-Nov-22 19:00N 55°17' W 152°14'0 0.1 983.6 8.1
2014-Nov-22 18:00N 55°17' W 152°14'1 1.0 982.8 8.1
2014-Nov-22 16:50N 55°19' W 152°14'1 1.5 982.4 8.1
2014-Nov-22 15:50N 55°19' W 152°16'0 0.3 981.7 8.1
2014-Nov-22 14:50N 55°19' W 152°16'0 0.0 981.2 8.1
2014-Nov-22 13:50N 55°19' W 152°16'1 1.4 980.7 8.1
2014-Nov-22 13:00N 55°19' W 152°17'0 0.0 980.4 8.1
2014-Nov-22 12:00N 55°19' W 152°17'0 0.0 979.8 8.2
2014-Nov-22 10:50N 55°19' W 152°17'0 0.4 979.2 8.2
2014-Nov-22 10:00N 55°19' W 152°18'2 0.8 978.5 8.2
2014-Nov-22 07:50N 55°18' W 152°15'1 0.7 977.1 8.2
2014-Nov-22 07:00N 55°19' W 152°15'1 1.4 976.2 8.2
2014-Nov-22 06:00N 55°20' W 152°14'1 1.1 975.5 8.2
2014-Nov-22 04:50N 55°21' W 152°13'0 0.3 974.7 8.2
2014-Nov-22 03:50N 55°21' W 152°14'1 1.2 974.1 8.2
2014-Nov-22 02:50N 55°22' W 152°16'1 0.9 973.5 8.2
2014-Nov-22 01:50N 55°22' W 152°17'1 0.8 973.1 8.2
2014-Nov-22 00:50N 55°22' W 152°17'1 0.8 972.8 8.2
2014-Nov-22 00:00N 55°22' W 152°18'1 1.4 973.2 8.2
2014-Nov-21 23:00N 55°21' W 152°17'0 0.2 973.5 8.2
2014-Nov-21 20:50N 55°21' W 152°16'1 0.7 974.1 8.2
2014-Nov-21 19:50N 55°22' W 152°16'0 0.0 973.9 8.2
2014-Nov-21 18:50N 55°22' W 152°16'2 1.8 973.6 8.2
2014-Nov-21 18:00N 55°22' W 152°13'0 0.3 973.4 8.2
2014-Nov-21 17:00N 55°22' W 152°13'1 1.0 973.2 8.2
2014-Nov-21 15:50N 55°23' W 152°13'0 0.0 973.0 8.2
2014-Nov-21 15:00N 55°23' W 152°13'1 0.8 972.8 8.2
2014-Nov-21 13:50N 55°24' W 152°14'1 0.7 972.6 8.2
2014-Nov-21 12:50N 55°24' W 152°13'1 1.5 972.3 8.2
2014-Nov-21 11:50N 55°25' W 152°16'0 0.4 971.8 8.2
2014-Nov-21 11:00N 55°25' W 152°15'1 0.3 971.5 8.2
2014-Nov-21 09:00N 55°24' W 152°14'0 0.0 970.4 8.2
2014-Nov-21 07:50N 55°24' W 152°14'1 1.0 969.8 8.2
2014-Nov-21 06:50N 55°24' W 152°16'1 1.0 969.1 8.2
2014-Nov-21 05:50N 55°24' W 152°14'1 0.7 968.8 8.2
2014-Nov-21 04:50N 55°25' W 152°14'0 0.0 968.8 8.2
2014-Nov-21 04:00N 55°25' W 152°14'1 0.6 968.9 8.3
2014-Nov-21 03:00N 55°25' W 152°14'1 0.5 968.9 8.3
2014-Nov-21 01:50N 55°26' W 152°14'1 0.8 968.6 8.3
2014-Nov-21 01:00N 55°25' W 152°14'0 0.0 968.3 8.3
2014-Nov-20 23:50N 55°25' W 152°14'0 0.3 968.1 8.3
2014-Nov-20 22:50N 55°25' W 152°14'0 0.0 968.3 8.3
2014-Nov-20 21:50N 55°25' W 152°14'2 1.8 968.4 8.3
2014-Nov-20 21:00N 55°24' W 152°12'2 1.7 968.5 8.3
2014-Nov-20 20:00N 55°26' W 152°13'1 0.3 968.6 8.3
2014-Nov-20 17:50N 55°26' W 152°13'0 0.4 969.3 8.3
2014-Nov-20 16:50N 55°26' W 152°13'1 0.6 969.9 8.3
2014-Nov-20 15:50N 55°26' W 152°14'1 0.6 970.3 8.3
2014-Nov-20 14:50N 55°25' W 152°14'0 0.0 972.7 8.3
2014-Nov-20 14:00N 55°25' W 152°14'1 0.7 975.4 8.3
2014-Nov-20 13:00N 55°25' W 152°13'0 0.0 978.2 8.3
2014-Nov-20 12:00N 55°25' W 152°13'3 1.3 980.9 8.4
2014-Nov-20 09:50N 55°24' W 152°08'1 0.2 985.9 8.4
2014-Nov-20 07:00N 55°25' W 152°09'1 0.6 991.4 8.4
2014-Nov-20 06:00N 55°25' W 152°09'1 0.6 992.8 8.4
2014-Nov-20 04:50N 55°26' W 152°08'1 0.7 994.4 8.4
2014-Nov-20 03:50N 55°25' W 152°09'1 0.9 995.7 8.4
2014-Nov-20 02:50N 55°26' W 152°10'0 0.1 997.0 8.4
2014-Nov-20 01:50N 55°26' W 152°10'1 0.7 997.8 8.4
2014-Nov-20 01:00N 55°25' W 152°11'0 0.0 998.5 8.4
2014-Nov-20 00:00N 55°25' W 152°11'1 0.6 999.6 8.4
2014-Nov-19 22:50N 55°25' W 152°10'1 1.2 1000.7 8.4
2014-Nov-19 21:50N 55°24' W 152°10'1 0.8 1001.6 8.4
2014-Nov-19 21:00N 55°24' W 152°08'0 0.3 1002.4 8.4
2014-Nov-19 19:50N 55°24' W 152°08'2 1.8 1003.0 8.4
2014-Nov-19 18:50N 55°25' W 152°05'1 1.5 1003.4 8.4
2014-Nov-19 18:00N 55°26' W 152°05'0 0.3 1003.2 8.4
2014-Nov-19 17:00N 55°26' W 152°05'1 0.8 1003.6 8.4
2014-Nov-19 15:50N 55°26' W 152°06'1 0.7 1003.9 8.4
2014-Nov-19 14:50N 55°27' W 152°07'1 0.7 1003.4 8.4
2014-Nov-19 13:50N 55°27' W 152°08'1 0.7 1003.5 8.4
2014-Nov-19 12:50N 55°26' W 152°08'0 0.0 1003.4 8.4
2014-Nov-19 11:50N 55°26' W 152°08'0 0.1 1003.2 8.4
2014-Nov-19 10:50N 55°26' W 152°08'2 0.9 1002.3 8.4
2014-Nov-19 09:00N 55°26' W 152°05'1 1.2 1000.9 8.4
2014-Nov-19 08:00N 55°26' W 152°04'0 0.2 1000.1 8.4
2014-Nov-19 06:50N 55°26' W 152°04'0 0.4 999.3 8.4
2014-Nov-19 05:50N 55°26' W 152°03'1 0.6 998.5 8.4
2014-Nov-19 04:50N 55°27' W 152°03'1 0.7 997.6 8.4
2014-Nov-19 04:00N 55°28' W 152°03'1 1.2 996.7 8.4
2014-Nov-19 03:00N 55°28' W 152°05'0 0.0 996.0 8.4
2014-Nov-19 02:00N 55°28' W 152°05'1 0.8 994.7 8.4
2014-Nov-19 00:50N 55°29' W 152°06'0 0.3 993.6 8.4
2014-Nov-18 23:50N 55°29' W 152°07'1 0.6 992.4 8.4
2014-Nov-18 22:50N 55°28' W 152°07'0 0.0 991.2 8.4
2014-Nov-18 22:00N 55°28' W 152°07'2 1.4 990.4 8.4
2014-Nov-18 20:50N 55°27' W 152°05'1 0.6 989.1 8.5
2014-Nov-18 20:00N 55°27' W 152°05'2 2.4 988.0 8.5
2014-Nov-18 19:00N 55°29' W 152°02'0 0.0 986.7 8.5
2014-Nov-18 18:00N 55°29' W 152°02'1 0.6 985.9 8.5
2014-Nov-18 16:50N 55°29' W 152°02'1 0.7 985.3 8.5
2014-Nov-18 15:50N 55°30' W 152°02'1 1.7 985.2 8.5
2014-Nov-18 15:00N 55°31' W 152°03'1 0.5 985.2 8.5
2014-Nov-18 14:00N 55°32' W 152°02'0 0.4 985.4 8.5
2014-Nov-18 13:00N 55°32' W 152°03'1 0.5 986.5 8.5
2014-Nov-18 11:50N 55°31' W 152°03'0 0.0 988.1 8.5
2014-Nov-18 11:00N 55°31' W 152°03'0 0.1 989.7 8.5
2014-Nov-18 08:00N 55°31' W 152°02'2 1.5 993.5 8.5
2014-Nov-18 06:50N 55°31' W 151°59'1 1.1 994.1 8.5
2014-Nov-18 06:00N 55°31' W 152°01'1 1.4 994.5 8.5
2014-Nov-18 05:00N 55°31' W 151°58'0 0.0 994.9 8.5
2014-Nov-18 03:50N 55°31' W 151°58'0 0.3 996.3 8.5
2014-Nov-18 02:50N 55°31' W 151°58'0 0.4 998.1 8.5
2014-Nov-18 01:50N 55°31' W 151°57'1 1.2 1000.4 8.5
2014-Nov-18 01:00N 55°32' W 151°56'0 0.0 1003.1 8.5
2014-Nov-18 00:00N 55°32' W 151°56'1 0.9 1005.2 8.5
2014-Nov-17 23:00N 55°31' W 151°55'1 0.6 1007.3 8.5
2014-Nov-17 21:50N 55°31' W 151°56'1 1.2 1009.1 8.5
2014-Nov-17 21:00N 55°31' W 151°55'0 0.3 1010.4 8.5
2014-Nov-17 19:50N 55°31' W 151°54'0 0.0 1011.3 8.5
2014-Nov-17 18:50N 55°31' W 151°54'1 0.7 1012.3 8.5
2014-Nov-17 17:50N 55°31' W 151°53'0 0.4 1013.2 8.5
2014-Nov-17 17:00N 55°31' W 151°53'1 1.0 1013.4 8.5
2014-Nov-17 16:00N 55°31' W 151°52'0 0.3 1014.2 8.6
2014-Nov-17 15:00N 55°31' W 151°51'0 0.0 1014.7 8.6
2014-Nov-17 13:50N 55°31' W 151°51'1 0.7 1015.7 8.6
2014-Nov-17 12:50N 55°31' W 151°50'0 0.3 1015.9 8.6
2014-Nov-17 11:50N 55°31' W 151°50'0 0.2 1015.6 8.6
2014-Nov-17 10:00N 55°31' W 151°50'1 0.9 1016.1 8.6
2014-Nov-17 08:50N 55°31' W 151°48'0 0.0 1016.1 8.6
2014-Nov-17 07:50N 55°31' W 151°48'0 0.0 1015.7 8.6
2014-Nov-17 06:50N 55°31' W 151°48'0 0.3 1015.2 8.6
2014-Nov-17 05:50N 55°31' W 151°47'0 0.3 1014.6 8.6
2014-Nov-17 04:50N 55°31' W 151°48'0 0.3 1014.0 8.6
2014-Nov-17 03:50N 55°31' W 151°47'0 0.4 1013.3 8.6
2014-Nov-17 03:00N 55°31' W 151°47'0 0.0 1012.1 8.6
2014-Nov-17 02:00N 55°31' W 151°47'1 0.5 1010.8 8.6
2014-Nov-17 00:50N 55°31' W 151°47'1 0.7 1009.6 8.6
2014-Nov-16 23:50N 55°30' W 151°46'1 0.8 1008.5 8.6
2014-Nov-16 22:50N 55°30' W 151°45'0 0.3 1007.7 8.6
2014-Nov-16 22:00N 55°31' W 151°46'1 0.9 1007.3 8.7
2014-Nov-16 21:00N 55°30' W 151°44'1 0.7 1006.9 8.7
2014-Nov-16 20:00N 55°31' W 151°44'0 0.0 1005.9 8.6
2014-Nov-16 18:50N 55°31' W 151°44'1 1.2 1005.5 8.6
2014-Nov-16 18:00N 55°31' W 151°42'0 0.0 1004.8 8.6
2014-Nov-16 16:50N 55°31' W 151°42'0 0.0 1004.2 8.6
2014-Nov-16 15:50N 55°31' W 151°42'0 0.0 1003.9 8.6
2014-Nov-16 15:00N 55°31' W 151°42'0 0.0 1004.0 8.6
2014-Nov-16 14:00N 55°31' W 151°42'1 0.6 1004.3 8.6
2014-Nov-16 13:00N 55°30' W 151°42'0 0.3 1004.6 8.6
2014-Nov-16 11:50N 55°30' W 151°41'1 1.4 1005.1 8.6
2014-Nov-16 10:50N 55°29' W 151°40'2 1.5 1006.0 8.6
2014-Nov-16 09:50N 55°28' W 151°38'0 0.3 1007.0 8.6
2014-Nov-16 08:50N 55°28' W 151°38'1 0.8 1007.6 8.6
2014-Nov-16 07:00N 55°28' W 151°35'0 0.0 1008.6 8.6
2014-Nov-16 05:50N 55°28' W 151°35'0 0.4 1009.0 8.6
2014-Nov-16 05:00N 55°28' W 151°35'0 0.0 1009.0 8.6
2014-Nov-16 03:50N 55°28' W 151°35'0 0.3 1008.7 8.6
2014-Nov-16 02:50N 55°28' W 151°34'1 0.7 1007.7 8.6
2014-Nov-16 01:50N 55°28' W 151°35'1 0.6 1006.7 8.6
2014-Nov-16 00:50N 55°27' W 151°35'1 1.5 1005.5 8.6
2014-Nov-16 00:00N 55°26' W 151°35'0 0.0 1004.2 8.6
2014-Nov-15 21:50N 55°26' W 151°35'1 0.7 1002.5 8.6
2014-Nov-15 19:50N 55°25' W 151°34'3 2.7 1002.5 8.6
2014-Nov-15 18:50N 55°23' W 151°31'0 0.0 1003.3 8.6
2014-Nov-15 18:00N 55°23' W 151°31'1 1.0 1004.8 8.6
2014-Nov-15 17:00N 55°23' W 151°29'1 0.6 1006.2 8.6
2014-Nov-15 15:50N 55°22' W 151°28'0 0.0 1007.2 8.6
2014-Nov-15 15:00N 55°22' W 151°28'1 0.8 1008.0 8.6
2014-Nov-15 13:50N 55°22' W 151°27'0 0.0 1008.6 8.6
2014-Nov-15 12:50N 55°22' W 151°27'1 0.7 1009.2 8.6
2014-Nov-15 11:50N 55°22' W 151°26'1 0.4 1009.6 8.6
2014-Nov-15 10:00N 55°21' W 151°26'2 1.0 1010.6 8.6
2014-Nov-15 08:00N 55°19' W 151°25'1 0.5 1010.9 8.6
2014-Nov-15 06:50N 55°19' W 151°25'1 0.7 1010.8 8.6
2014-Nov-15 05:50N 55°18' W 151°25'1 0.9 1010.7 8.6
2014-Nov-15 04:50N 55°17' W 151°23'0 0.4 1010.8 8.6
2014-Nov-15 04:00N 55°17' W 151°23'1 0.7 1010.8 8.6
2014-Nov-15 03:00N 55°17' W 151°22'1 1.0 1010.8 8.6
2014-Nov-15 01:50N 55°16' W 151°20'0 0.0 1010.8 8.6
2014-Nov-15 01:00N 55°16' W 151°20'1 0.6 1010.7 8.6
2014-Nov-14 23:50N 55°16' W 151°19'0 0.0 1011.1 8.6
2014-Nov-14 22:50N 55°16' W 151°19'1 1.2 1011.6 8.6
2014-Nov-14 21:50N 55°15' W 151°19'0 0.0 1011.7 8.6
2014-Nov-14 21:00N 55°15' W 151°19'1 0.5 1011.6 8.6
2014-Nov-14 19:50N 55°14' W 151°19'1 0.6 1011.1 8.6
2014-Nov-14 18:50N 55°14' W 151°19'2 2.2 1010.3 8.6
2014-Nov-14 18:00N 55°13' W 151°16'0 0.0 1008.9 8.6
2014-Nov-14 16:50N 55°13' W 151°16'1 1.0 1007.5 8.6
2014-Nov-14 15:50N 55°13' W 151°14'0 0.4 1006.4 8.6
2014-Nov-14 15:00N 55°13' W 151°14'0 0.3 1005.6 8.6
2014-Nov-14 14:00N 55°13' W 151°14'   1005.0 8.6

Dump ship's entire track history